aviador You're here:

OIBL Decoded Metar

BANDAR LENGEH in IRAN
Report Time2017-08-22 08:00:00
UTC Time2017-08-22 09:04:35
Flight Rules mvfr MVFR
Wind130° at 08 kt
W.Decomp.*RWY 08: 5.2 kt HW 6.0 kt RCW
W.Rank130° ranks 21
Current wind is above 130° avg. (7.8)
Visibility7000 m
Phenomena:N/A
Clouds:N/A
Expected CloudBase > 4,400 ft AGL from Temp-Dew spread
CeilingNone
Temp37°C (ISA +22)
Dew Point26°C (53% RH)
Heat Index47.4°C
QNH0999 hPa
Density Alt3,451 ft
Elevation46 ft
Report Wrong Elevation
Raw Report
METAR OIBL 220800Z 13008KT 7000 NSC 37/26 Q0999=

Extra information for OIBL:More info

Metar Taf Metar & Taf Last 4 Metars F.Rules Stats Wind Profile Meteogram Temp Stats Airport Information Weather charts Add Link Nearby VenuesMetar ALERT Operation Metar Decoded Social comments